Time;durP1;ratioP1;P1;durP2;ratioP2;P2;SDS_P1;SDS_P2;PMS_P1;PMS_P2;Temp;Humidity;BMP_temperature;BMP_pressure;BME280_temperature;BME280_humidity;BME280_pressure;Samples;Min_cycle;Max_cycle;Signal;HPM_P1;HPM_P2
2023/05/01 00:02:49;;;;;;;6.70;3.55;;;;;;;10.98;75.29;101748.66;5759348;23;20497;-83
2023/05/01 00:05:16;;;;;;;7.32;3.80;;;;;;;10.91;75.22;101741.22;5012829;28;20033;-83
2023/05/01 00:07:41;;;;;;;6.75;3.45;;;;;;;10.97;74.46;101741.81;5013322;28;20389;-85
2023/05/01 00:10:07;;;;;;;7.88;3.45;;;;;;;10.95;74.59;101741.06;5013240;28;20026;-85
2023/05/01 00:12:32;;;;;;;9.05;3.50;;;;;;;10.88;74.75;101727.59;5013140;28;20021;-85
2023/05/01 00:14:57;;;;;;;5.53;3.53;;;;;;;10.89;74.42;101724.09;4995302;28;20044;-86
2023/05/01 00:17:23;;;;;;;9.93;4.00;;;;;;;10.93;75.01;101732.56;5012872;28;20053;-84
2023/05/01 00:19:52;;;;;;;5.95;3.28;;;;;;;10.72;74.90;101693.13;5013199;28;20033;-81
2023/05/01 00:22:17;;;;;;;5.97;3.45;;;;;;;10.86;74.77;101722.50;5013199;28;20068;-84
2023/05/01 00:24:43;;;;;;;6.25;3.50;;;;;;;10.94;75.47;101724.72;5012870;28;20490;-83
2023/05/01 00:27:08;;;;;;;6.88;3.92;;;;;;;10.73;75.16;101690.44;5012730;28;20108;-82
2023/05/01 00:29:33;;;;;;;5.65;3.70;;;;;;;10.90;74.95;101718.84;5012488;28;20033;-82
2023/05/01 00:31:59;;;;;;;7.75;3.60;;;;;;;10.65;75.29;101673.66;4995097;28;20564;-83
2023/05/01 00:34:24;;;;;;;6.53;3.33;;;;;;;10.87;75.92;101708.66;5012517;28;20462;-81
2023/05/01 00:36:50;;;;;;;9.15;4.13;;;;;;;10.47;75.89;101644.41;5012713;28;20080;-82
2023/05/01 00:39:15;;;;;;;5.55;3.45;;;;;;;10.79;75.01;101699.63;5012959;28;20022;-84
2023/05/01 00:41:40;;;;;;;9.00;3.70;;;;;;;10.82;75.54;101699.50;5012852;28;20022;-84
2023/05/01 00:44:06;;;;;;;8.55;3.65;;;;;;;10.84;76.02;101713.16;5012783;28;20082;-84
2023/05/01 00:46:33;;;;;;;8.20;3.60;;;;;;;10.83;75.28;101703.75;5012627;28;20018;-84
2023/05/01 00:48:58;;;;;;;7.85;3.60;;;;;;;10.82;77.14;101704.66;5012330;28;20071;-85
2023/05/01 00:51:26;;;;;;;6.60;3.60;;;;;;;10.82;77.49;101696.91;5012632;28;20041;-85
2023/05/01 00:53:51;;;;;;;7.20;3.70;;;;;;;10.82;76.54;101692.59;5012677;28;20026;-85
2023/05/01 00:56:17;;;;;;;6.15;3.63;;;;;;;10.81;76.51;101687.47;5012317;28;20022;-85
2023/05/01 00:58:48;;;;;;;8.25;3.90;;;;;;;10.67;76.45;101666.66;5012439;28;20052;-85
2023/05/01 01:01:13;;;;;;;7.50;3.53;;;;;;;10.80;75.53;101688.38;5012273;28;20061;-85
2023/05/01 01:03:39;;;;;;;7.22;3.42;;;;;;;10.57;76.39;101650.78;5011969;28;20069;-85
2023/05/01 01:06:46;;;;;;;8.20;3.90;;;;;;;10.68;76.23;101664.00;5015675;28;20541;-85
2023/05/01 01:09:49;;;;;;;7.97;3.88;;;;;;;10.76;76.08;101676.53;4974509;28;20038;-85
2023/05/01 01:12:25;;;;;;;6.75;3.72;;;;;;;10.54;76.23;101646.63;4974860;28;20431;-85
2023/05/01 01:15:04;;;;;;;8.77;3.80;;;;;;;10.68;77.68;101669.16;4974862;28;20057;-82
2023/05/01 01:18:00;;;;;;;5.90;3.75;;;;;;;10.67;78.79;101677.00;4974899;28;20120;-86
2023/05/01 01:20:54;;;;;;;6.43;3.95;;;;;;;10.64;77.53;101665.09;4974778;28;20539;-85
2023/05/01 01:23:40;;;;;;;7.35;3.80;;;;;;;10.60;78.31;101661.78;4974662;28;20027;-85
2023/05/01 01:26:18;;;;;;;7.78;4.15;;;;;;;10.58;78.43;101661.03;4974646;28;20043;-85
2023/05/01 01:29:11;;;;;;;9.75;4.35;;;;;;;10.58;78.29;101647.28;4974655;28;20108;-85
2023/05/01 01:31:55;;;;;;;7.40;4.18;;;;;;;10.56;79.23;101652.53;4974559;28;20034;-86
2023/05/01 01:34:35;;;;;;;6.55;3.90;;;;;;;10.55;79.14;101644.88;4974418;28;20043;-83
2023/05/01 01:37:23;;;;;;;5.45;3.90;;;;;;;10.51;78.54;101651.91;4958032;28;20027;-85
2023/05/01 01:39:57;;;;;;;7.15;4.05;;;;;;;10.48;79.11;101636.59;4974475;28;20070;-86
2023/05/01 01:42:32;;;;;;;7.88;4.50;;;;;;;10.29;78.71;101608.25;4974445;28;20039;-85
2023/05/01 01:45:09;;;;;;;6.40;3.70;;;;;;;10.27;79.84;101602.34;4978782;28;20161;-86
2023/05/01 01:47:35;;;;;;;8.63;4.10;;;;;;;10.42;80.04;101630.88;5015288;28;20420;-84
2023/05/01 01:50:05;;;;;;;6.80;3.85;;;;;;;10.28;79.76;101603.16;5015347;28;20037;-86
2023/05/01 01:52:32;;;;;;;7.85;4.25;;;;;;;10.21;82.35;101599.19;4997946;28;20118;-85
2023/05/01 01:55:04;;;;;;;6.63;4.07;;;;;;;10.20;80.89;101595.75;5015282;28;20481;-86
2023/05/01 01:57:31;;;;;;;6.65;4.13;;;;;;;10.28;81.85;101616.06;5015284;28;20096;-83
2023/05/01 01:59:57;;;;;;;7.82;4.30;;;;;;;9.91;81.19;101553.31;5015138;28;20053;-83
2023/05/01 02:02:25;;;;;;;8.25;4.15;;;;;;;9.92;80.03;101554.97;5015067;28;20025;-85
2023/05/01 02:04:51;;;;;;;7.10;4.63;;;;;;;9.41;82.28;101480.97;5014952;28;20385;-83
2023/05/01 02:07:18;;;;;;;8.43;4.38;;;;;;;10.11;81.80;101592.78;5015183;28;20046;-80
2023/05/01 02:09:44;;;;;;;8.30;4.43;;;;;;;10.19;83.30;101606.16;5014958;28;20038;-83
2023/05/01 02:12:11;;;;;;;9.82;4.43;;;;;;;9.94;83.74;101567.84;5014845;28;20040;-81
2023/05/01 02:14:38;;;;;;;8.38;4.47;;;;;;;9.92;83.79;101562.72;5014905;28;20108;-83
2023/05/01 02:17:04;;;;;;;8.63;4.20;;;;;;;9.84;82.50;101536.50;5014103;28;20393;-83
2023/05/01 02:19:32;;;;;;;6.45;4.07;;;;;;;10.01;82.87;101577.75;5014841;28;20109;-83
2023/05/01 02:21:58;;;;;;;10.85;4.13;;;;;;;9.97;84.27;101571.09;5014974;28;20049;-83
2023/05/01 02:24:26;;;;;;;11.02;4.78;;;;;;;10.15;82.96;101596.91;5014836;28;20038;-84
2023/05/01 02:27:15;;;;;;;7.28;4.22;;;;;;;10.07;83.68;101580.06;5014540;28;20040;-84
2023/05/01 02:29:41;;;;;;;8.75;4.75;;;;;;;9.95;85.44;101560.00;5014665;28;20116;-81
2023/05/01 02:32:07;;;;;;;9.48;4.57;;;;;;;10.02;84.79;101574.25;5014750;28;20113;-81
2023/05/01 02:34:35;;;;;;;8.65;4.13;;;;;;;10.10;83.61;101581.63;5014539;28;20028;-81
2023/05/01 02:37:03;;;;;;;9.52;4.78;;;;;;;9.99;82.73;101571.84;5014518;28;20096;-80
2023/05/01 02:39:28;;;;;;;9.48;4.43;;;;;;;9.86;83.35;101544.97;5014546;28;20026;-82
2023/05/01 02:41:57;;;;;;;8.40;4.32;;;;;;;9.95;85.21;101560.00;5014784;28;20466;-80
2023/05/01 02:44:24;;;;;;;8.45;4.80;;;;;;;9.75;86.44;101527.44;5014591;28;20033;-79
2023/05/01 02:46:52;;;;;;;9.63;4.90;;;;;;;10.01;86.20;101567.44;5014538;28;20442;-78
2023/05/01 02:49:19;;;;;;;10.48;4.72;;;;;;;9.85;84.58;101535.56;5014263;28;20041;-80
2023/05/01 02:51:45;;;;;;;10.63;4.95;;;;;;;10.00;86.32;101559.78;5014287;28;20026;-79
2023/05/01 02:54:11;;;;;;;10.63;5.07;;;;;;;10.00;86.30;101555.44;5014165;28;20148;-80
2023/05/01 02:56:37;;;;;;;9.18;4.57;;;;;;;10.01;85.13;101551.13;5014113;28;20026;-79
2023/05/01 02:59:03;;;;;;;10.63;4.78;;;;;;;9.96;87.06;101548.78;5014092;28;20088;-79
2023/05/01 03:01:28;;;;;;;9.82;4.90;;;;;;;9.74;87.32;101515.47;5014033;28;20026;-80
2023/05/01 03:03:54;;;;;;;9.05;5.22;;;;;;;9.88;87.58;101545.72;5013887;28;20053;-79
2023/05/01 03:06:19;;;;;;;10.02;5.07;;;;;;;9.63;85.49;101498.81;4996390;28;20574;-80
2023/05/01 03:08:46;;;;;;;7.55;4.88;;;;;;;9.87;86.59;101545.81;5014000;28;20026;-80
2023/05/01 03:11:12;;;;;;;9.48;4.88;;;;;;;9.69;87.64;101514.84;5013638;28;20034;-80
2023/05/01 03:13:37;;;;;;;9.85;5.20;;;;;;;9.60;88.31;101501.53;5013740;28;20029;-79
2023/05/01 03:16:03;;;;;;;9.50;4.75;;;;;;;9.82;86.36;101533.13;5013660;28;20044;-80
2023/05/01 03:18:29;;;;;;;7.75;5.18;;;;;;;9.67;87.97;101520.97;5013947;28;20030;-80
2023/05/01 03:20:58;;;;;;;9.93;5.25;;;;;;;9.59;88.57;101500.72;5013378;28;20425;-80
2023/05/01 03:23:23;;;;;;;8.48;4.97;;;;;;;9.58;89.31;101509.34;4996834;28;20033;-81
2023/05/01 03:25:49;;;;;;;8.35;4.78;;;;;;;9.26;89.27;101461.91;5013741;28;20034;-80
2023/05/01 03:28:15;;;;;;;10.23;5.40;;;;;;;9.71;86.84;101523.31;5013311;28;20393;-81
2023/05/01 03:30:40;;;;;;;13.82;5.03;;;;;;;9.62;89.31;101504.88;5013261;28;20117;-78
2023/05/01 03:33:08;;;;;;;11.40;5.20;;;;;;;9.62;90.39;101510.03;5013423;28;20057;-82
2023/05/01 03:35:34;;;;;;;10.48;5.50;;;;;;;9.51;89.65;101494.25;5013410;28;20021;-80
2023/05/01 03:38:00;;;;;;;7.97;4.90;;;;;;;9.63;90.89;101517.69;5013419;28;20120;-80
2023/05/01 03:40:25;;;;;;;9.75;5.82;;;;;;;9.62;90.99;101508.28;5013368;28;20052;-82
2023/05/01 03:42:50;;;;;;;10.35;5.40;;;;;;;9.41;91.60;101480.97;5013437;28;20022;-80
2023/05/01 03:45:16;;;;;;;10.60;5.28;;;;;;;9.59;89.40;101510.19;5013389;28;20026;-84
2023/05/01 03:47:41;;;;;;;8.27;5.10;;;;;;;9.55;91.81;101509.50;5013098;28;20033;-82
2023/05/01 03:50:07;;;;;;;11.65;6.20;;;;;;;9.60;90.54;101509.28;5013095;28;20022;-80
2023/05/01 03:52:36;;;;;;;11.15;5.88;;;;;;;9.51;91.38;101497.66;5013209;28;20030;-81
2023/05/01 03:55:01;;;;;;;12.27;5.97;;;;;;;9.60;89.89;101499.81;4995863;28;20022;-80
2023/05/01 03:57:26;;;;;;;9.35;5.35;;;;;;;9.39;91.70;101470.72;5013143;28;20385;-81
2023/05/01 03:59:53;;;;;;;10.52;5.70;;;;;;;9.40;91.16;101462.09;5012877;28;20481;-79
2023/05/01 04:02:18;;;;;;;10.05;6.03;;;;;;;9.55;92.21;101491.47;4995470;28;20454;-79
2023/05/01 04:04:43;;;;;;;10.77;5.80;;;;;;;9.60;90.22;101494.66;4995413;28;20045;-80
2023/05/01 04:07:09;;;;;;;9.38;5.57;;;;;;;9.54;89.65;101486.34;5012875;28;20034;-79
2023/05/01 04:09:35;;;;;;;9.98;5.97;;;;;;;9.23;90.03;101432.88;5012815;28;20056;-80
2023/05/01 04:12:01;;;;;;;11.05;5.60;;;;;;;9.52;91.67;101483.03;5012833;28;20041;-80
2023/05/01 04:14:28;;;;;;;11.40;5.70;;;;;;;9.60;91.27;101494.66;5012734;28;20021;-81
2023/05/01 04:16:53;;;;;;;11.32;5.63;;;;;;;9.61;90.26;101493.72;5013001;28;20477;-79
2023/05/01 04:19:18;;;;;;;8.88;6.18;;;;;;;9.61;90.69;101495.47;5013037;28;20028;-81
2023/05/01 04:21:44;;;;;;;9.60;6.18;;;;;;;9.51;90.12;101468.47;5012845;28;20508;-82
2023/05/01 04:24:10;;;;;;;8.60;5.90;;;;;;;9.56;90.47;101475.09;5012658;28;20053;-84
2023/05/01 04:26:35;;;;;;;9.45;5.75;;;;;;;9.65;90.67;101486.69;5012663;28;20088;-79
2023/05/01 04:29:01;;;;;;;11.13;5.40;;;;;;;9.65;90.52;101489.28;5012591;28;20022;-81
2023/05/01 04:31:26;;;;;;;11.65;5.82;;;;;;;9.68;88.71;101487.38;4994805;28;20026;-80
2023/05/01 04:33:52;;;;;;;12.18;6.05;;;;;;;9.65;89.61;101486.69;5011697;28;20131;-83
2023/05/01 04:36:20;;;;;;;9.70;5.82;;;;;;;9.64;89.44;101485.88;5012563;28;20079;-81
2023/05/01 04:38:45;;;;;;;10.80;5.72;;;;;;;9.43;90.48;101449.03;5012684;28;20034;-81
2023/05/01 04:41:11;;;;;;;8.65;5.57;;;;;;;9.61;89.80;101474.84;5016070;28;20033;-80
2023/05/01 04:43:36;;;;;;;10.90;5.95;;;;;;;9.72;88.33;101490.63;5016661;28;20030;-80
2023/05/01 04:46:03;;;;;;;13.73;6.00;;;;;;;9.44;88.17;101439.59;5016578;28;20100;-81
2023/05/01 04:48:28;;;;;;;9.88;5.95;;;;;;;9.76;87.48;101493.00;4999327;28;20374;-81
2023/05/01 04:50:54;;;;;;;11.18;5.65;;;;;;;9.79;86.07;101492.00;5016486;28;20030;-82
2023/05/01 04:53:20;;;;;;;10.57;6.03;;;;;;;9.44;88.11;101440.44;5016583;28;20026;-84
2023/05/01 04:55:45;;;;;;;10.07;5.57;;;;;;;9.81;89.56;101504.81;4998649;28;20129;-81
2023/05/01 04:58:10;;;;;;;10.60;6.15;;;;;;;9.77;87.41;101492.09;4998721;28;20034;-79
2023/05/01 05:00:35;;;;;;;9.15;5.40;;;;;;;9.36;88.57;101421.91;5016208;28;20076;-80
2023/05/01 05:06:50;;;;;;;11.52;6.40;;;;;;;9.87;88.43;101489.06;5016540;28;20052;-81
2023/05/01 05:09:16;;;;;;;9.85;5.60;;;;;;;9.80;87.64;101469.63;5015718;28;20026;-80
2023/05/01 05:11:41;;;;;;;11.10;6.03;;;;;;;9.92;86.97;101487.91;5016169;28;20068;-81
2023/05/01 05:14:07;;;;;;;13.65;6.43;;;;;;;9.73;89.41;101454.47;5016073;28;20038;-85
2023/05/01 05:16:33;;;;;;;8.43;6.03;;;;;;;9.96;86.58;101489.44;5016149;28;20121;-81
2023/05/01 05:18:58;;;;;;;11.02;6.15;;;;;;;10.04;86.42;101489.91;5016067;28;20386;-83
2023/05/01 05:21:24;;;;;;;12.38;6.10;;;;;;;10.04;85.22;101494.22;5015931;28;20022;-84
2023/05/01 05:23:49;;;;;;;10.90;6.38;;;;;;;10.05;86.62;101490.72;5015745;28;20021;-86
2023/05/01 05:26:18;;;;;;;11.77;6.28;;;;;;;10.09;86.04;101484.50;5015715;28;20071;-85
2023/05/01 05:28:50;;;;;;;11.18;5.85;;;;;;;9.77;86.08;101431.94;5015846;28;20030;-81
2023/05/01 05:31:16;;;;;;;11.00;6.63;;;;;;;10.20;86.22;101487.34;5015712;28;20036;-91
2023/05/01 05:33:44;;;;;;;13.05;6.20;;;;;;;9.98;85.71;101440.34;5015816;28;20025;-86
2023/05/01 05:36:28;;;;;;;11.35;5.53;;;;;;;9.11;84.80;101277.94;5015769;28;20069;-82
2023/05/01 05:38:54;;;;;;;11.43;6.45;;;;;;;9.81;84.16;101393.91;5015746;28;20112;-91
2023/05/01 05:41:20;;;;;;;10.90;6.00;;;;;;;9.82;83.08;101368.03;5015730;28;20572;-91
2023/05/01 05:43:45;;;;;;;9.43;5.57;;;;;;;10.42;82.61;101455.31;5015806;28;20022;-90
2023/05/01 05:46:11;;;;;;;10.48;6.10;;;;;;;10.40;83.19;101428.75;5015697;28;20022;-91
2023/05/01 05:49:07;;;;;;;11.77;6.00;;;;;;;10.84;81.94;101484.03;5015754;28;20524;-81
2023/05/01 05:51:32;;;;;;;10.85;5.88;;;;;;;10.92;81.46;101475.88;5000456;28;20038;-82
2023/05/01 05:53:58;;;;;;;10.80;5.70;;;;;;;11.04;80.68;101482.13;5015503;28;20025;-82
2023/05/01 05:56:26;;;;;;;12.90;6.07;;;;;;;11.13;79.20;101479.06;5015306;28;20109;-85
2023/05/01 05:58:51;;;;;;;10.30;5.43;;;;;;;11.18;80.08;101459.78;5015539;28;20057;-81
2023/05/01 06:01:17;;;;;;;11.52;5.85;;;;;;;11.29;78.45;101448.84;5015342;28;20069;-85
2023/05/01 06:04:17;;;;;;;11.63;6.53;;;;;;;11.58;78.63;101472.22;5015166;28;20039;-86
2023/05/01 06:07:05;;;;;;;10.43;6.72;;;;;;;11.11;77.77;101368.00;5019247;28;20021;-80
2023/05/01 06:09:30;;;;;;;11.30;6.10;;;;;;;11.64;76.25;101426.16;5014980;28;20079;-80
2023/05/01 06:15:42;;;;;;;10.00;5.93;;;;;;;12.31;75.84;101473.16;5015292;28;20095;-83
2023/05/01 06:18:08;;;;;;;11.07;6.30;;;;;;;11.54;74.28;101351.75;5015115;28;20061;-82
2023/05/01 06:20:36;;;;;;;11.50;6.88;;;;;;;12.20;74.03;101454.84;5014779;28;20443;-81
2023/05/01 06:23:02;;;;;;;11.55;6.68;;;;;;;11.87;74.17;101392.94;5014735;28;20108;-81
2023/05/01 06:25:50;;;;;;;9.68;6.90;;;;;;;11.38;74.06;101316.44;5014827;28;20552;-83
2023/05/01 06:35:30;;;;;;;12.10;6.93;;;;;;;12.58;74.02;101470.63;4974251;28;20077;-84
2023/05/01 06:38:15;;;;;;;11.85;6.55;;;;;;;12.68;73.90;101466.53;4973316;28;20541;-83
2023/05/01 06:40:48;;;;;;;9.65;6.45;;;;;;;12.45;73.63;101412.72;4973488;28;20122;-83
2023/05/01 06:43:38;;;;;;;13.57;6.70;;;;;;;12.21;72.72;101361.53;4973360;28;20454;-82
2023/05/01 06:46:21;;;;;;;12.32;7.00;;;;;;;12.01;72.89;101286.84;4957277;28;20031;-82
2023/05/01 07:15:15;;;;;;;12.65;7.38;;;;;;;14.03;70.15;101461.31;4992409;28;20057;-89
2023/05/01 07:22:03;;;;;;;14.50;7.72;;;;;;;14.35;68.15;101467.78;4994155;28;20382;-86
2023/05/01 07:24:29;;;;;;;11.63;7.32;;;;;;;14.54;67.49;101464.75;4993992;28;20169;-83
2023/05/01 07:26:55;;;;;;;12.32;7.65;;;;;;;14.74;67.43;101452.13;4994335;28;20445;-83
2023/05/01 07:29:20;;;;;;;11.13;7.57;;;;;;;14.75;65.99;101438.19;4976448;28;20045;-85
2023/05/01 07:31:48;;;;;;;13.68;8.18;;;;;;;14.94;64.84;101456.75;4994064;28;20038;-83
2023/05/01 07:34:14;;;;;;;13.55;8.30;;;;;;;14.99;65.05;101440.84;4994255;28;20037;-86
2023/05/01 07:36:40;;;;;;;13.82;7.95;;;;;;;14.97;65.22;101458.31;4994056;28;20026;-87
2023/05/01 07:39:08;;;;;;;14.15;7.82;;;;;;;15.00;64.99;101458.91;4993845;28;20019;-87
2023/05/01 07:41:33;;;;;;;11.68;8.30;;;;;;;15.01;64.89;101452.78;4993773;28;20034;-81
2023/05/01 07:43:58;;;;;;;17.08;8.40;;;;;;;15.08;64.30;101463.59;4993751;28;20034;-81
2023/05/01 07:46:25;;;;;;;13.85;8.52;;;;;;;15.25;64.41;101452.78;4976414;28;20397;-82
2023/05/01 07:48:51;;;;;;;13.27;7.82;;;;;;;15.22;64.12;101458.19;5007690;28;20088;-82
2023/05/01 07:51:17;;;;;;;14.50;8.52;;;;;;;15.32;64.39;101463.56;5013294;28;20916;-87
2023/05/01 07:53:43;;;;;;;12.75;8.23;;;;;;;15.40;65.08;101461.25;5013402;28;20026;-88
2023/05/01 07:56:09;;;;;;;13.60;8.73;;;;;;;15.39;65.12;101443.97;4995803;28;20076;-89
2023/05/01 07:58:35;;;;;;;16.23;8.63;;;;;;;15.57;63.19;101467.81;5012836;28;20022;-87
2023/05/01 08:01:02;;;;;;;16.05;8.00;;;;;;;15.63;62.84;101467.38;5013231;28;20109;-88
2023/05/01 08:03:30;;;;;;;14.25;8.00;;;;;;;15.65;63.18;101462.91;5013226;28;20037;-84
2023/05/01 08:05:56;;;;;;;13.07;8.55;;;;;;;15.36;62.03;101449.41;5013213;28;20057;-84
2023/05/01 08:08:21;;;;;;;14.07;8.32;;;;;;;15.58;62.32;101467.72;5012880;28;20022;-87
2023/05/01 08:10:47;;;;;;;12.25;8.73;;;;;;;15.65;62.30;101455.94;5012974;28;20034;-87
2023/05/01 08:13:13;;;;;;;13.32;7.95;;;;;;;15.71;63.29;101436.41;5012885;28;20398;-87
2023/05/01 08:15:41;;;;;;;13.65;8.13;;;;;;;15.68;61.74;101411.44;5012383;28;20030;-85
2023/05/01 08:18:06;;;;;;;13.40;8.70;;;;;;;16.28;61.73;101465.03;5012851;28;20102;-85
2023/05/01 08:20:32;;;;;;;15.45;8.20;;;;;;;16.53;60.42;101457.94;5013144;28;20077;-86
2023/05/01 08:22:57;;;;;;;12.73;8.60;;;;;;;16.73;58.42;101433.75;5012991;28;20482;-82
2023/05/01 08:25:23;;;;;;;11.35;7.97;;;;;;;17.11;58.15;101446.34;5012615;28;20485;-86
2023/05/01 08:27:48;;;;;;;14.50;8.50;;;;;;;17.31;58.72;101447.34;4995007;28;20029;-87
2023/05/01 08:30:14;;;;;;;12.45;8.95;;;;;;;17.20;57.37;101427.31;5012818;28;20029;-86
2023/05/01 08:32:39;;;;;;;12.48;8.50;;;;;;;17.40;56.94;101457.03;5012709;28;20044;-87
2023/05/01 08:35:05;;;;;;;12.23;8.18;;;;;;;17.31;57.36;101447.34;4994859;28;20058;-86
2023/05/01 08:37:30;;;;;;;18.55;9.23;;;;;;;17.35;58.93;101451.34;5012756;28;20032;-85
2023/05/01 08:39:55;;;;;;;13.35;8.85;;;;;;;17.27;57.33;101416.38;5012457;28;20026;-88
2023/05/01 08:42:21;;;;;;;10.85;7.90;;;;;;;17.49;56.06;101432.75;5012695;28;20041;-88
2023/05/01 08:44:47;;;;;;;13.70;8.88;;;;;;;17.45;56.73;101407.03;5012522;28;20026;-83
2023/05/01 08:47:13;;;;;;;12.85;8.20;;;;;;;17.86;56.21;101441.97;5012675;28;20026;-85
2023/05/01 08:49:40;;;;;;;10.77;7.55;;;;;;;17.97;54.29;101447.13;5013782;28;20036;-86
2023/05/01 08:52:07;;;;;;;10.50;7.55;;;;;;;17.96;55.56;101445.47;5014244;28;20466;-82
2023/05/01 08:54:40;;;;;;;10.48;7.55;;;;;;;17.81;54.65;101429.31;4995083;28;20076;-85
2023/05/01 09:03:20;;;;;;;12.13;8.02;;;;;;;16.61;55.03;101305.13;5012734;28;20053;-80
2023/05/01 09:05:46;;;;;;;13.80;7.63;;;;;;;17.51;54.84;101455.34;5012509;28;20022;-80
2023/05/01 09:08:45;;;;;;;11.88;7.70;;;;;;;17.65;55.93;101458.44;5012299;28;20428;-84
2023/05/01 09:11:44;;;;;;;10.48;7.97;;;;;;;17.83;56.21;101450.91;5012167;28;20029;-84
2023/05/01 09:15:02;;;;;;;11.50;8.05;;;;;;;17.74;55.15;101459.50;5012222;28;20054;-81
2023/05/01 09:17:23;;;;;;;13.07;7.72;;;;;;;17.73;55.68;101455.25;4994794;28;20058;-83
2023/05/01 09:33:24;;;;;;;;;;;;;;;17.65;56.59;101458.44;4955857;29;20121;-84
2023/05/01 09:37:02;;;;;;;12.40;8.23;;;;;;;17.62;57.34;101458.72;4954986;29;19914;-85
2023/05/01 09:39:36;;;;;;;11.98;7.53;;;;;;;16.78;55.71;101301.19;4880128;29;20462;-83
2023/05/01 09:45:45;;;;;;;;;;;;;;;;;;;;;
2023/05/01 09:51:27;;;;;;;11.85;8.25;;;;;;;18.73;54.05;101452.81;4879050;29;20492;-87
2023/05/01 09:57:06;;;;;;;11.07;8.30;;;;;;;18.32;54.54;101290.69;4879025;29;20461;-84
2023/05/01 09:59:33;;;;;;;12.98;8.48;;;;;;;19.29;50.02;101410.31;4896860;29;20482;-86
2023/05/01 10:05:55;;;;;;;11.48;7.82;;;;;;;20.12;52.25;101451.53;4916657;29;20116;-82
2023/05/01 10:15:10;;;;;;;11.00;8.65;;;;;;;20.24;50.14;101450.38;5014586;28;19940;-86
2023/05/01 10:18:16;;;;;;;12.85;8.70;;;;;;;18.78;50.41;101286.63;5014710;28;20034;-80
2023/05/01 10:21:00;;;;;;;9.63;7.15;;;;;;;19.20;49.96;101354.38;4975560;28;20038;-80
2023/05/01 10:26:08;;;;;;;11.05;6.80;;;;;;;18.75;49.61;101291.28;5419768;22;20054;-81
2023/05/01 10:28:36;;;;;;;9.38;6.50;;;;;;;19.30;47.17;101398.88;5014988;28;20434;-81
2023/05/01 10:31:15;;;;;;;10.18;7.20;;;;;;;19.60;50.66;101466.84;5014614;28;20069;-83
2023/05/01 10:36:50;;;;;;;11.18;7.60;;;;;;;18.62;51.82;101331.59;5014310;28;20041;-83
2023/05/01 10:39:38;;;;;;;10.88;7.72;;;;;;;19.71;52.14;101452.75;4974524;28;21167;-82
2023/05/01 10:42:27;;;;;;;10.30;7.72;;;;;;;18.67;50.38;101299.00;4973547;23;20051;-80
2023/05/01 10:45:33;;;;;;;13.00;7.60;;;;;;;19.77;50.64;101462.69;4975338;28;20085;-84
2023/05/01 10:48:43;;;;;;;10.88;7.50;;;;;;;19.87;52.47;101466.09;4975121;28;20109;-84
2023/05/01 10:51:39;;;;;;;10.88;7.00;;;;;;;19.57;50.67;101467.13;4957882;28;20042;-85
2023/05/01 10:54:42;;;;;;;10.52;7.43;;;;;;;19.57;52.20;101463.69;4957661;28;20043;-83
2023/05/01 10:57:43;;;;;;;13.00;7.90;;;;;;;18.28;51.82;101283.25;4896423;29;20607;-86
2023/05/01 11:00:09;;;;;;;12.45;7.43;;;;;;;19.22;52.83;101472.03;4880655;29;20510;-87
2023/05/01 11:02:35;;;;;;;11.90;7.90;;;;;;;19.00;51.91;101434.69;4896606;29;20486;-80
2023/05/01 11:05:01;;;;;;;12.93;7.90;;;;;;;18.87;51.53;101450.63;4896420;29;20044;-84
2023/05/01 11:07:27;;;;;;;10.88;7.65;;;;;;;18.56;52.21;101442.00;4896610;29;20036;-82
2023/05/01 11:09:56;;;;;;;11.57;7.90;;;;;;;18.49;51.84;101425.22;4896508;29;20417;-87
2023/05/01 11:12:50;;;;;;;11.30;7.90;;;;;;;18.85;52.83;101462.22;4895928;29;20040;-87
2023/05/01 11:15:49;;;;;;;11.40;7.50;;;;;;;18.79;53.13;101460.16;4880454;29;20582;-86
2023/05/01 11:18:45;;;;;;;10.43;7.60;;;;;;;17.89;53.63;101311.88;4897713;29;20589;-90
2023/05/01 11:21:37;;;;;;;9.52;7.80;;;;;;;18.19;51.25;101350.25;4896348;29;20116;-88
2023/05/01 11:28:36;;;;;;;12.80;7.68;;;;;;;18.14;50.74;101321.06;4896041;29;20083;-84
2023/05/01 11:31:16;;;;;;;12.95;8.13;;;;;;;18.00;48.99;101306.59;4874556;29;20058;-84
2023/05/01 11:34:07;;;;;;;11.20;7.53;;;;;;;19.12;49.64;101474.66;4914917;29;20042;-85
2023/05/01 11:37:06;;;;;;;11.60;8.07;;;;;;;19.30;49.11;101465.16;4914781;29;20051;-82
2023/05/01 11:39:37;;;;;;;12.68;7.95;;;;;;;19.37;49.22;101466.28;4914838;29;20115;-82
2023/05/01 11:42:43;;;;;;;12.98;7.90;;;;;;;19.56;49.03;101469.84;4914026;29;20040;-82
2023/05/01 11:45:27;;;;;;;9.25;6.85;;;;;;;18.32;49.29;101303.75;4914928;29;20580;-82
2023/05/01 11:48:36;;;;;;;10.55;7.05;;;;;;;19.24;49.53;101475.34;4899020;29;20036;-82
2023/05/01 12:08:50;;;;;;;10.95;6.70;;;;;;;18.52;52.06;101484.25;4973919;28;20034;-84
2023/05/01 12:18:45;;;;;;;11.13;6.60;;;;;;;18.41;50.80;101484.34;4973856;28;20058;-87
2023/05/01 12:24:36;;;;;;;12.67;6.73;;;;;;;17.45;52.25;101402.63;4933431;29;20051;-82
2023/05/01 12:27:54;;;;;;;11.60;6.93;;;;;;;17.89;52.83;101481.72;4916512;29;20503;-84
2023/05/01 12:45:31;;;;;;;8.32;4.97;;;;;;;18.41;51.72;101487.81;4973207;28;20042;-79
2023/05/01 13:42:55;;;;;;;11.82;6.40;;;;;;;18.55;49.53;101505.75;4915131;29;20169;-87
2023/05/01 13:45:21;;;;;;;12.50;6.60;;;;;;;17.14;48.36;101331.25;4918725;29;20032;-88
2023/05/01 13:47:48;;;;;;;11.93;5.88;;;;;;;18.21;49.02;101499.94;4918970;29;20047;-86
2023/05/01 13:50:16;;;;;;;10.15;6.40;;;;;;;17.44;48.70;101401.00;4918855;29;20039;-88
2023/05/01 13:52:43;;;;;;;10.15;6.05;;;;;;;18.04;48.54;101490.91;4919092;29;20039;-83
2023/05/01 13:55:09;;;;;;;11.02;5.93;;;;;;;17.71;49.65;101454.53;4918865;29;20544;-81
2023/05/01 13:57:37;;;;;;;9.93;5.72;;;;;;;18.01;49.24;101495.56;4919028;29;20055;-89
2023/05/01 14:00:07;;;;;;;10.27;5.60;;;;;;;17.52;50.25;101413.41;4918718;29;20051;-89
2023/05/01 14:05:35;;;;;;;11.70;6.25;;;;;;;17.41;50.06;101445.63;4904091;29;20070;-81
2023/05/01 14:08:24;;;;;;;12.20;6.40;;;;;;;17.34;51.30;101465.34;4918825;29;20556;-82
2023/05/01 14:11:40;;;;;;;12.38;7.00;;;;;;;16.98;51.75;101416.97;4918559;29;20361;-82
2023/05/01 14:14:54;;;;;;;12.77;6.60;;;;;;;17.37;51.72;101506.03;4878261;29;20045;-80
2023/05/01 14:30:53;;;;;;;10.65;6.05;;;;;;;16.45;52.49;101351.63;4804989;29;20058;-84
2023/05/01 14:33:25;;;;;;;9.93;5.93;;;;;;;16.81;53.59;101444.41;4804831;29;20051;-82
2023/05/01 14:43:30;;;;;;;12.48;5.95;;;;;;;17.06;54.94;101508.50;4986968;28;20155;-85
2023/05/01 14:46:45;;;;;;;11.70;5.85;;;;;;;17.29;54.38;101509.25;4962650;28;20037;-83
2023/05/01 14:49:23;;;;;;;12.05;5.85;;;;;;;16.89;53.21;101449.00;4975566;28;20478;-86
2023/05/01 15:06:18;;;;;;;9.85;5.70;;;;;;;17.15;51.74;101525.22;4978423;28;20049;-90
2023/05/01 15:08:55;;;;;;;10.25;5.40;;;;;;;16.75;52.44;101457.94;4975429;28;20031;-80
2023/05/01 15:21:26;;;;;;;11.75;6.20;;;;;;;16.99;51.75;101399.53;4975197;28;20041;-80
2023/05/01 15:28:02;;;;;;;10.35;6.10;;;;;;;18.14;53.54;101517.09;4929380;28;20077;-79
2023/05/01 15:30:45;;;;;;;9.23;5.28;;;;;;;18.12;50.90;101465.91;4974460;28;20383;-79
2023/05/01 15:33:13;;;;;;;8.82;4.93;;;;;;;17.95;49.92;101457.69;4974527;28;20029;-81
2023/05/01 15:35:51;;;;;;;8.52;4.43;;;;;;;17.75;50.13;101424.59;4974528;28;20027;-82
2023/05/01 15:42:26;;;;;;;8.60;5.22;;;;;;;18.57;51.98;101524.75;4895955;29;20039;-80
2023/05/01 15:48:52;;;;;;;7.43;4.60;;;;;;;18.45;50.92;101533.63;4896383;29;20051;-86
2023/05/01 15:51:18;;;;;;;8.02;4.50;;;;;;;17.38;51.53;101388.44;4895798;29;20116;-87
2023/05/01 15:53:55;;;;;;;8.50;4.72;;;;;;;17.13;51.50;101378.38;4895840;29;20115;-86
2023/05/01 15:56:21;;;;;;;6.78;4.85;;;;;;;17.92;51.33;101538.16;4895817;29;20468;-83
2023/05/01 16:12:26;;;;;;;8.10;5.60;;;;;;;16.28;55.21;101372.97;4897583;29;20036;-83
2023/05/01 16:18:34;;;;;;;9.70;6.82;;;;;;;17.33;55.72;101562.91;4917224;28;20097;-83
2023/05/01 16:24:33;;;;;;;9.40;8.30;;;;;;;16.97;56.53;101569.25;5670692;23;20064;-82